sensor_id;sensor_type;location;lat;lon;timestamp;P1;durP1;ratioP1;P2;durP2;ratioP2
29504;SDS011;16452;54.174;12.092;2022-07-31T00:01:26;3.97;;;1.23;;
29504;SDS011;16452;54.174;12.092;2022-07-31T00:03:52;2.30;;;1.30;;
29504;SDS011;16452;54.174;12.092;2022-07-31T00:06:18;4.22;;;1.27;;
29504;SDS011;16452;54.174;12.092;2022-07-31T00:08:43;2.60;;;1.30;;
29504;SDS011;16452;54.174;12.092;2022-07-31T00:11:09;6.05;;;1.60;;
29504;SDS011;16452;54.174;12.092;2022-07-31T00:13:35;4.55;;;1.48;;
29504;SDS011;16452;54.174;12.092;2022-07-31T00:16:02;2.80;;;1.20;;
29504;SDS011;16452;54.174;12.092;2022-07-31T00:18:28;5.18;;;1.48;;
29504;SDS011;16452;54.174;12.092;2022-07-31T00:20:54;2.40;;;1.48;;
29504;SDS011;16452;54.174;12.092;2022-07-31T00:23:19;4.68;;;1.40;;
29504;SDS011;16452;54.174;12.092;2022-07-31T00:25:45;6.70;;;1.50;;
29504;SDS011;16452;54.174;12.092;2022-07-31T00:28:11;3.95;;;1.60;;
29504;SDS011;16452;54.174;12.092;2022-07-31T00:30:36;2.20;;;1.35;;
29504;SDS011;16452;54.174;12.092;2022-07-31T00:33:02;3.67;;;1.20;;
29504;SDS011;16452;54.174;12.092;2022-07-31T00:35:28;4.65;;;1.20;;
29504;SDS011;16452;54.174;12.092;2022-07-31T00:37:54;3.30;;;1.38;;
29504;SDS011;16452;54.174;12.092;2022-07-31T00:40:19;7.15;;;1.92;;
29504;SDS011;16452;54.174;12.092;2022-07-31T00:42:45;4.35;;;1.52;;
29504;SDS011;16452;54.174;12.092;2022-07-31T00:45:11;1.83;;;1.20;;
29504;SDS011;16452;54.174;12.092;2022-07-31T00:47:37;8.95;;;1.27;;
29504;SDS011;16452;54.174;12.092;2022-07-31T00:50:02;5.07;;;1.30;;
29504;SDS011;16452;54.174;12.092;2022-07-31T00:52:29;3.72;;;1.60;;
29504;SDS011;16452;54.174;12.092;2022-07-31T00:54:54;2.88;;;1.50;;
29504;SDS011;16452;54.174;12.092;2022-07-31T00:57:20;4.75;;;1.45;;
29504;SDS011;16452;54.174;12.092;2022-07-31T00:59:46;4.95;;;1.50;;
29504;SDS011;16452;54.174;12.092;2022-07-31T01:02:12;7.10;;;1.45;;
29504;SDS011;16452;54.174;12.092;2022-07-31T01:04:37;2.03;;;1.25;;
29504;SDS011;16452;54.174;12.092;2022-07-31T01:07:03;3.63;;;1.25;;
29504;SDS011;16452;54.174;12.092;2022-07-31T01:09:29;3.88;;;1.60;;
29504;SDS011;16452;54.174;12.092;2022-07-31T01:14:46;4.13;;;1.35;;
29504;SDS011;16452;54.174;12.092;2022-07-31T01:17:17;3.70;;;1.50;;
29504;SDS011;16452;54.174;12.092;2022-07-31T01:19:46;5.57;;;1.60;;
29504;SDS011;16452;54.174;12.092;2022-07-31T01:22:29;4.45;;;1.70;;
29504;SDS011;16452;54.174;12.092;2022-07-31T01:28:39;3.63;;;1.30;;
29504;SDS011;16452;54.174;12.092;2022-07-31T01:31:12;6.63;;;1.58;;
29504;SDS011;16452;54.174;12.092;2022-07-31T01:33:47;4.85;;;1.42;;
29504;SDS011;16452;54.174;12.092;2022-07-31T01:36:23;3.58;;;1.50;;
29504;SDS011;16452;54.174;12.092;2022-07-31T01:38:58;4.05;;;1.30;;
29504;SDS011;16452;54.174;12.092;2022-07-31T01:41:25;3.83;;;1.30;;
29504;SDS011;16452;54.174;12.092;2022-07-31T01:43:57;3.50;;;1.40;;
29504;SDS011;16452;54.174;12.092;2022-07-31T01:46:25;2.92;;;1.40;;
29504;SDS011;16452;54.174;12.092;2022-07-31T01:48:53;4.65;;;1.67;;
29504;SDS011;16452;54.174;12.092;2022-07-31T01:51:22;4.80;;;1.38;;
29504;SDS011;16452;54.174;12.092;2022-07-31T01:53:51;2.35;;;1.42;;
29504;SDS011;16452;54.174;12.092;2022-07-31T01:56:19;3.22;;;1.60;;
29504;SDS011;16452;54.174;12.092;2022-07-31T01:58:46;7.75;;;2.08;;
29504;SDS011;16452;54.174;12.092;2022-07-31T02:01:13;3.85;;;1.70;;
29504;SDS011;16452;54.174;12.092;2022-07-31T02:03:40;3.15;;;1.40;;
29504;SDS011;16452;54.174;12.092;2022-07-31T02:06:08;6.43;;;1.60;;
29504;SDS011;16452;54.174;12.092;2022-07-31T02:08:35;4.78;;;1.52;;
29504;SDS011;16452;54.174;12.092;2022-07-31T02:11:02;10.35;;;1.65;;
29504;SDS011;16452;54.174;12.092;2022-07-31T02:13:29;2.30;;;1.50;;
29504;SDS011;16452;54.174;12.092;2022-07-31T02:15:56;6.70;;;2.35;;
29504;SDS011;16452;54.174;12.092;2022-07-31T02:18:23;4.28;;;1.83;;
29504;SDS011;16452;54.174;12.092;2022-07-31T02:20:49;2.83;;;1.55;;
29504;SDS011;16452;54.174;12.092;2022-07-31T02:23:16;2.83;;;1.60;;
29504;SDS011;16452;54.174;12.092;2022-07-31T02:25:42;2.88;;;1.75;;
29504;SDS011;16452;54.174;12.092;2022-07-31T02:28:11;3.88;;;1.48;;
29504;SDS011;16452;54.174;12.092;2022-07-31T02:30:43;3.78;;;1.70;;
29504;SDS011;16452;54.174;12.092;2022-07-31T02:33:16;3.92;;;1.60;;
29504;SDS011;16452;54.174;12.092;2022-07-31T02:35:47;7.47;;;1.70;;
29504;SDS011;16452;54.174;12.092;2022-07-31T02:38:18;5.15;;;1.70;;
29504;SDS011;16452;54.174;12.092;2022-07-31T02:40:47;7.90;;;1.90;;
29504;SDS011;16452;54.174;12.092;2022-07-31T02:43:15;2.35;;;1.60;;
29504;SDS011;16452;54.174;12.092;2022-07-31T02:45:41;3.65;;;1.40;;
29504;SDS011;16452;54.174;12.092;2022-07-31T02:48:08;4.63;;;1.58;;
29504;SDS011;16452;54.174;12.092;2022-07-31T02:50:34;3.00;;;1.58;;
29504;SDS011;16452;54.174;12.092;2022-07-31T02:53:00;6.05;;;1.77;;
29504;SDS011;16452;54.174;12.092;2022-07-31T02:55:27;1.95;;;1.50;;
29504;SDS011;16452;54.174;12.092;2022-07-31T02:57:53;3.92;;;1.80;;
29504;SDS011;16452;54.174;12.092;2022-07-31T03:00:19;2.80;;;1.52;;
29504;SDS011;16452;54.174;12.092;2022-07-31T03:02:51;6.90;;;1.63;;
29504;SDS011;16452;54.174;12.092;2022-07-31T03:05:18;5.95;;;1.55;;
29504;SDS011;16452;54.174;12.092;2022-07-31T03:07:45;4.90;;;1.80;;
29504;SDS011;16452;54.174;12.092;2022-07-31T03:10:11;4.63;;;1.70;;
29504;SDS011;16452;54.174;12.092;2022-07-31T03:12:38;5.72;;;1.80;;
29504;SDS011;16452;54.174;12.092;2022-07-31T03:15:07;3.30;;;1.60;;
29504;SDS011;16452;54.174;12.092;2022-07-31T03:17:36;5.43;;;1.50;;
29504;SDS011;16452;54.174;12.092;2022-07-31T03:20:05;3.05;;;1.60;;
29504;SDS011;16452;54.174;12.092;2022-07-31T03:22:32;7.90;;;1.80;;
29504;SDS011;16452;54.174;12.092;2022-07-31T03:24:58;3.05;;;1.75;;
29504;SDS011;16452;54.174;12.092;2022-07-31T03:27:26;3.90;;;1.70;;
29504;SDS011;16452;54.174;12.092;2022-07-31T03:29:52;5.40;;;2.10;;
29504;SDS011;16452;54.174;12.092;2022-07-31T03:32:18;4.60;;;1.75;;
29504;SDS011;16452;54.174;12.092;2022-07-31T03:34:45;5.72;;;1.83;;
29504;SDS011;16452;54.174;12.092;2022-07-31T03:37:11;2.45;;;1.60;;
29504;SDS011;16452;54.174;12.092;2022-07-31T03:39:36;7.95;;;2.15;;
29504;SDS011;16452;54.174;12.092;2022-07-31T03:42:02;3.30;;;1.70;;
29504;SDS011;16452;54.174;12.092;2022-07-31T03:44:29;4.80;;;1.67;;
29504;SDS011;16452;54.174;12.092;2022-07-31T03:46:56;2.83;;;1.42;;
29504;SDS011;16452;54.174;12.092;2022-07-31T03:49:23;3.38;;;1.50;;
29504;SDS011;16452;54.174;12.092;2022-07-31T03:51:50;3.30;;;1.67;;
29504;SDS011;16452;54.174;12.092;2022-07-31T03:54:16;5.15;;;1.65;;
29504;SDS011;16452;54.174;12.092;2022-07-31T03:56:42;3.60;;;1.88;;
29504;SDS011;16452;54.174;12.092;2022-07-31T03:59:14;9.77;;;1.65;;
29504;SDS011;16452;54.174;12.092;2022-07-31T04:01:42;5.18;;;2.30;;
29504;SDS011;16452;54.174;12.092;2022-07-31T04:04:09;2.75;;;1.73;;
29504;SDS011;16452;54.174;12.092;2022-07-31T04:06:36;2.50;;;1.60;;
29504;SDS011;16452;54.174;12.092;2022-07-31T04:09:02;3.58;;;1.80;;
29504;SDS011;16452;54.174;12.092;2022-07-31T04:11:28;4.03;;;1.60;;
29504;SDS011;16452;54.174;12.092;2022-07-31T04:13:54;2.80;;;1.60;;
29504;SDS011;16452;54.174;12.092;2022-07-31T04:16:20;4.53;;;1.60;;
29504;SDS011;16452;54.174;12.092;2022-07-31T04:18:45;3.80;;;1.92;;
29504;SDS011;16452;54.174;12.092;2022-07-31T04:21:11;6.25;;;2.42;;
29504;SDS011;16452;54.174;12.092;2022-07-31T04:23:37;7.45;;;2.38;;
29504;SDS011;16452;54.174;12.092;2022-07-31T04:26:03;2.67;;;1.70;;
29504;SDS011;16452;54.174;12.092;2022-07-31T04:28:29;2.00;;;1.40;;
29504;SDS011;16452;54.174;12.092;2022-07-31T04:30:55;4.15;;;1.58;;
29504;SDS011;16452;54.174;12.092;2022-07-31T04:33:21;5.07;;;2.22;;
29504;SDS011;16452;54.174;12.092;2022-07-31T04:35:47;2.75;;;1.55;;
29504;SDS011;16452;54.174;12.092;2022-07-31T04:38:16;5.43;;;1.73;;
29504;SDS011;16452;54.174;12.092;2022-07-31T04:40:42;4.22;;;1.42;;
29504;SDS011;16452;54.174;12.092;2022-07-31T04:43:08;7.20;;;1.88;;
29504;SDS011;16452;54.174;12.092;2022-07-31T04:45:34;3.33;;;2.42;;
29504;SDS011;16452;54.174;12.092;2022-07-31T04:48:00;6.32;;;2.15;;
29504;SDS011;16452;54.174;12.092;2022-07-31T04:50:26;5.53;;;1.90;;
29504;SDS011;16452;54.174;12.092;2022-07-31T04:52:52;3.90;;;1.85;;
29504;SDS011;16452;54.174;12.092;2022-07-31T04:55:17;3.00;;;1.77;;
29504;SDS011;16452;54.174;12.092;2022-07-31T04:57:43;4.75;;;1.60;;
29504;SDS011;16452;54.174;12.092;2022-07-31T05:00:09;2.47;;;1.35;;
29504;SDS011;16452;54.174;12.092;2022-07-31T05:02:35;4.80;;;1.60;;
29504;SDS011;16452;54.174;12.092;2022-07-31T05:05:01;3.80;;;1.52;;
29504;SDS011;16452;54.174;12.092;2022-07-31T05:07:28;2.97;;;1.45;;
29504;SDS011;16452;54.174;12.092;2022-07-31T05:09:53;4.15;;;1.42;;
29504;SDS011;16452;54.174;12.092;2022-07-31T05:12:20;3.83;;;1.33;;
29504;SDS011;16452;54.174;12.092;2022-07-31T05:14:46;5.07;;;1.80;;
29504;SDS011;16452;54.174;12.092;2022-07-31T05:17:11;2.58;;;1.42;;
29504;SDS011;16452;54.174;12.092;2022-07-31T05:19:37;5.00;;;1.65;;
29504;SDS011;16452;54.174;12.092;2022-07-31T05:22:03;5.05;;;1.70;;
29504;SDS011;16452;54.174;12.092;2022-07-31T05:24:30;4.78;;;1.70;;
29504;SDS011;16452;54.174;12.092;2022-07-31T05:26:55;3.13;;;1.55;;
29504;SDS011;16452;54.174;12.092;2022-07-31T05:29:21;5.80;;;1.70;;
29504;SDS011;16452;54.174;12.092;2022-07-31T05:31:47;2.90;;;1.80;;
29504;SDS011;16452;54.174;12.092;2022-07-31T05:34:13;6.03;;;1.65;;
29504;SDS011;16452;54.174;12.092;2022-07-31T05:36:39;2.90;;;1.50;;
29504;SDS011;16452;54.174;12.092;2022-07-31T05:39:05;7.25;;;1.60;;
29504;SDS011;16452;54.174;12.092;2022-07-31T05:41:30;8.63;;;1.75;;
29504;SDS011;16452;54.174;12.092;2022-07-31T05:43:58;2.67;;;1.50;;
29504;SDS011;16452;54.174;12.092;2022-07-31T05:46:23;5.15;;;1.70;;
29504;SDS011;16452;54.174;12.092;2022-07-31T05:48:49;3.95;;;1.63;;
29504;SDS011;16452;54.174;12.092;2022-07-31T05:51:15;4.90;;;1.50;;
29504;SDS011;16452;54.174;12.092;2022-07-31T05:53:41;3.42;;;1.33;;
29504;SDS011;16452;54.174;12.092;2022-07-31T05:56:07;5.85;;;1.80;;
29504;SDS011;16452;54.174;12.092;2022-07-31T05:58:33;5.75;;;1.70;;
29504;SDS011;16452;54.174;12.092;2022-07-31T06:00:59;7.53;;;1.80;;
29504;SDS011;16452;54.174;12.092;2022-07-31T06:03:25;8.70;;;2.20;;
29504;SDS011;16452;54.174;12.092;2022-07-31T06:05:54;3.50;;;1.80;;
29504;SDS011;16452;54.174;12.092;2022-07-31T06:08:20;5.38;;;1.80;;
29504;SDS011;16452;54.174;12.092;2022-07-31T06:10:46;5.60;;;2.13;;
29504;SDS011;16452;54.174;12.092;2022-07-31T06:13:12;2.45;;;1.52;;
29504;SDS011;16452;54.174;12.092;2022-07-31T06:15:40;10.93;;;2.00;;
29504;SDS011;16452;54.174;12.092;2022-07-31T06:18:06;6.03;;;2.25;;
29504;SDS011;16452;54.174;12.092;2022-07-31T06:20:32;6.85;;;1.92;;
29504;SDS011;16452;54.174;12.092;2022-07-31T06:22:58;6.57;;;2.25;;
29504;SDS011;16452;54.174;12.092;2022-07-31T06:25:24;4.78;;;1.83;;
29504;SDS011;16452;54.174;12.092;2022-07-31T06:27:50;3.75;;;1.98;;
29504;SDS011;16452;54.174;12.092;2022-07-31T06:30:16;6.03;;;2.20;;
29504;SDS011;16452;54.174;12.092;2022-07-31T06:32:42;3.90;;;1.70;;
29504;SDS011;16452;54.174;12.092;2022-07-31T06:35:08;3.80;;;2.00;;
29504;SDS011;16452;54.174;12.092;2022-07-31T06:37:35;4.43;;;1.90;;
29504;SDS011;16452;54.174;12.092;2022-07-31T06:40:01;4.90;;;2.15;;
29504;SDS011;16452;54.174;12.092;2022-07-31T06:42:27;5.45;;;2.30;;
29504;SDS011;16452;54.174;12.092;2022-07-31T06:44:52;4.57;;;2.55;;
29504;SDS011;16452;54.174;12.092;2022-07-31T06:47:20;5.95;;;2.03;;
29504;SDS011;16452;54.174;12.092;2022-07-31T06:49:48;4.40;;;1.85;;
29504;SDS011;16452;54.174;12.092;2022-07-31T06:52:14;5.40;;;1.90;;
29504;SDS011;16452;54.174;12.092;2022-07-31T06:54:40;6.07;;;2.72;;
29504;SDS011;16452;54.174;12.092;2022-07-31T06:57:08;7.85;;;3.10;;
29504;SDS011;16452;54.174;12.092;2022-07-31T06:59:34;4.68;;;2.97;;
29504;SDS011;16452;54.174;12.092;2022-07-31T07:02:00;6.32;;;2.60;;
29504;SDS011;16452;54.174;12.092;2022-07-31T07:04:25;9.30;;;3.40;;
29504;SDS011;16452;54.174;12.092;2022-07-31T07:06:51;16.48;;;4.28;;
29504;SDS011;16452;54.174;12.092;2022-07-31T07:09:17;9.93;;;2.78;;
29504;SDS011;16452;54.174;12.092;2022-07-31T07:11:45;6.90;;;4.00;;
29504;SDS011;16452;54.174;12.092;2022-07-31T07:14:11;7.97;;;4.15;;
29504;SDS011;16452;54.174;12.092;2022-07-31T07:16:38;6.57;;;3.45;;
29504;SDS011;16452;54.174;12.092;2022-07-31T07:19:04;8.50;;;3.50;;
29504;SDS011;16452;54.174;12.092;2022-07-31T07:21:30;8.25;;;4.95;;
29504;SDS011;16452;54.174;12.092;2022-07-31T07:23:55;7.00;;;4.53;;
29504;SDS011;16452;54.174;12.092;2022-07-31T07:26:21;7.03;;;4.15;;
29504;SDS011;16452;54.174;12.092;2022-07-31T07:28:47;9.23;;;5.88;;
29504;SDS011;16452;54.174;12.092;2022-07-31T07:31:13;13.32;;;9.07;;
29504;SDS011;16452;54.174;12.092;2022-07-31T07:33:39;16.88;;;9.80;;
29504;SDS011;16452;54.174;12.092;2022-07-31T07:36:05;17.95;;;10.07;;
29504;SDS011;16452;54.174;12.092;2022-07-31T07:38:31;20.05;;;10.57;;
29504;SDS011;16452;54.174;12.092;2022-07-31T07:40:56;18.02;;;11.30;;
29504;SDS011;16452;54.174;12.092;2022-07-31T07:43:23;19.48;;;11.05;;
29504;SDS011;16452;54.174;12.092;2022-07-31T07:45:49;19.13;;;12.13;;
29504;SDS011;16452;54.174;12.092;2022-07-31T07:48:15;18.48;;;11.95;;
29504;SDS011;16452;54.174;12.092;2022-07-31T07:50:40;15.75;;;11.13;;
29504;SDS011;16452;54.174;12.092;2022-07-31T07:53:06;16.75;;;11.00;;
29504;SDS011;16452;54.174;12.092;2022-07-31T07:55:32;18.35;;;11.98;;
29504;SDS011;16452;54.174;12.092;2022-07-31T07:58:01;19.27;;;11.50;;
29504;SDS011;16452;54.174;12.092;2022-07-31T08:00:26;17.27;;;11.63;;
29504;SDS011;16452;54.174;12.092;2022-07-31T08:02:52;18.10;;;11.60;;
29504;SDS011;16452;54.174;12.092;2022-07-31T08:05:18;20.42;;;11.70;;
29504;SDS011;16452;54.174;12.092;2022-07-31T08:07:44;16.20;;;11.57;;
29504;SDS011;16452;54.174;12.092;2022-07-31T08:10:10;15.00;;;11.25;;
29504;SDS011;16452;54.174;12.092;2022-07-31T08:12:36;17.30;;;11.75;;
29504;SDS011;16452;54.174;12.092;2022-07-31T08:15:02;23.17;;;12.50;;
29504;SDS011;16452;54.174;12.092;2022-07-31T08:17:29;17.48;;;11.38;;
29504;SDS011;16452;54.174;12.092;2022-07-31T08:19:55;18.35;;;12.45;;
29504;SDS011;16452;54.174;12.092;2022-07-31T08:22:20;14.48;;;11.20;;
29504;SDS011;16452;54.174;12.092;2022-07-31T08:24:46;19.33;;;12.07;;
29504;SDS011;16452;54.174;12.092;2022-07-31T08:27:12;21.88;;;12.35;;
29504;SDS011;16452;54.174;12.092;2022-07-31T08:29:55;23.25;;;13.93;;
29504;SDS011;16452;54.174;12.092;2022-07-31T08:32:24;18.33;;;11.20;;
29504;SDS011;16452;54.174;12.092;2022-07-31T08:34:51;19.73;;;11.15;;
29504;SDS011;16452;54.174;12.092;2022-07-31T08:37:18;17.92;;;10.77;;
29504;SDS011;16452;54.174;12.092;2022-07-31T08:39:44;19.95;;;11.15;;
29504;SDS011;16452;54.174;12.092;2022-07-31T08:42:12;21.52;;;12.40;;
29504;SDS011;16452;54.174;12.092;2022-07-31T08:44:39;18.35;;;11.07;;
29504;SDS011;16452;54.174;12.092;2022-07-31T08:47:07;19.42;;;10.18;;
29504;SDS011;16452;54.174;12.092;2022-07-31T08:49:39;13.63;;;9.63;;
29504;SDS011;16452;54.174;12.092;2022-07-31T08:52:17;14.73;;;9.65;;
29504;SDS011;16452;54.174;12.092;2022-07-31T08:54:49;16.25;;;11.60;;
29504;SDS011;16452;54.174;12.092;2022-07-31T08:57:17;16.48;;;10.35;;
29504;SDS011;16452;54.174;12.092;2022-07-31T08:59:43;16.70;;;10.32;;
29504;SDS011;16452;54.174;12.092;2022-07-31T09:02:10;16.17;;;10.48;;
29504;SDS011;16452;54.174;12.092;2022-07-31T09:04:37;15.48;;;8.93;;
29504;SDS011;16452;54.174;12.092;2022-07-31T09:07:03;20.08;;;10.15;;
29504;SDS011;16452;54.174;12.092;2022-07-31T09:09:33;16.02;;;9.32;;
29504;SDS011;16452;54.174;12.092;2022-07-31T09:11:59;16.83;;;10.93;;
29504;SDS011;16452;54.174;12.092;2022-07-31T09:14:28;13.20;;;9.27;;
29504;SDS011;16452;54.174;12.092;2022-07-31T09:16:57;18.48;;;9.65;;
29504;SDS011;16452;54.174;12.092;2022-07-31T09:19:23;15.60;;;10.57;;
29504;SDS011;16452;54.174;12.092;2022-07-31T09:22:02;10.23;;;8.45;;
29504;SDS011;16452;54.174;12.092;2022-07-31T09:24:29;15.90;;;10.35;;
29504;SDS011;16452;54.174;12.092;2022-07-31T09:27:08;14.82;;;9.77;;
29504;SDS011;16452;54.174;12.092;2022-07-31T09:29:34;15.95;;;9.70;;
29504;SDS011;16452;54.174;12.092;2022-07-31T09:35:10;12.13;;;9.75;;
29504;SDS011;16452;54.174;12.092;2022-07-31T09:37:39;12.65;;;9.27;;
29504;SDS011;16452;54.174;12.092;2022-07-31T09:40:06;14.60;;;10.52;;
29504;SDS011;16452;54.174;12.092;2022-07-31T09:42:37;14.65;;;11.15;;
29504;SDS011;16452;54.174;12.092;2022-07-31T09:45:18;19.02;;;10.93;;
29504;SDS011;16452;54.174;12.092;2022-07-31T09:47:46;13.77;;;10.75;;
29504;SDS011;16452;54.174;12.092;2022-07-31T09:50:29;14.57;;;9.70;;
29504;SDS011;16452;54.174;12.092;2022-07-31T09:52:58;15.98;;;9.93;;
29504;SDS011;16452;54.174;12.092;2022-07-31T09:55:25;19.17;;;10.48;;
29504;SDS011;16452;54.174;12.092;2022-07-31T09:57:55;14.27;;;9.35;;
29504;SDS011;16452;54.174;12.092;2022-07-31T10:00:25;15.35;;;12.00;;
29504;SDS011;16452;54.174;12.092;2022-07-31T10:02:52;15.88;;;11.25;;
29504;SDS011;16452;54.174;12.092;2022-07-31T10:05:22;16.30;;;10.43;;
29504;SDS011;16452;54.174;12.092;2022-07-31T10:07:50;14.70;;;10.43;;
29504;SDS011;16452;54.174;12.092;2022-07-31T10:10:17;16.17;;;10.82;;
29504;SDS011;16452;54.174;12.092;2022-07-31T10:12:47;13.23;;;10.50;;
29504;SDS011;16452;54.174;12.092;2022-07-31T10:15:18;15.45;;;10.50;;
29504;SDS011;16452;54.174;12.092;2022-07-31T10:17:46;17.42;;;10.68;;
29504;SDS011;16452;54.174;12.092;2022-07-31T10:20:19;13.65;;;11.02;;
29504;SDS011;16452;54.174;12.092;2022-07-31T10:22:49;18.23;;;11.05;;
29504;SDS011;16452;54.174;12.092;2022-07-31T10:25:28;19.85;;;11.32;;
29504;SDS011;16452;54.174;12.092;2022-07-31T10:27:59;17.05;;;10.65;;
29504;SDS011;16452;54.174;12.092;2022-07-31T10:30:26;19.50;;;10.20;;
29504;SDS011;16452;54.174;12.092;2022-07-31T10:32:52;15.15;;;10.02;;
29504;SDS011;16452;54.174;12.092;2022-07-31T10:35:18;17.90;;;9.98;;
29504;SDS011;16452;54.174;12.092;2022-07-31T10:37:57;19.05;;;11.68;;
29504;SDS011;16452;54.174;12.092;2022-07-31T10:43:16;15.25;;;8.05;;
29504;SDS011;16452;54.174;12.092;2022-07-31T10:46:13;16.58;;;10.65;;
29504;SDS011;16452;54.174;12.092;2022-07-31T10:48:52;13.48;;;9.35;;
29504;SDS011;16452;54.174;12.092;2022-07-31T10:51:18;13.20;;;8.95;;
29504;SDS011;16452;54.174;12.092;2022-07-31T10:53:59;13.85;;;8.63;;
29504;SDS011;16452;54.174;12.092;2022-07-31T10:56:27;16.35;;;9.82;;
29504;SDS011;16452;54.174;12.092;2022-07-31T10:59:03;11.77;;;7.70;;
29504;SDS011;16452;54.174;12.092;2022-07-31T11:01:30;16.05;;;8.50;;
29504;SDS011;16452;54.174;12.092;2022-07-31T11:03:59;13.35;;;8.68;;
29504;SDS011;16452;54.174;12.092;2022-07-31T11:06:36;17.63;;;8.50;;
29504;SDS011;16452;54.174;12.092;2022-07-31T11:09:07;16.70;;;8.30;;
29504;SDS011;16452;54.174;12.092;2022-07-31T11:11:34;13.93;;;9.00;;
29504;SDS011;16452;54.174;12.092;2022-07-31T11:14:01;14.88;;;8.55;;
29504;SDS011;16452;54.174;12.092;2022-07-31T11:16:27;13.55;;;8.45;;
29504;SDS011;16452;54.174;12.092;2022-07-31T11:18:57;14.35;;;9.48;;
29504;SDS011;16452;54.174;12.092;2022-07-31T11:23:58;12.05;;;8.73;;
29504;SDS011;16452;54.174;12.092;2022-07-31T11:26:24;16.08;;;9.75;;
29504;SDS011;16452;54.174;12.092;2022-07-31T11:28:50;12.90;;;9.05;;
29504;SDS011;16452;54.174;12.092;2022-07-31T11:31:16;16.52;;;11.20;;
29504;SDS011;16452;54.174;12.092;2022-07-31T11:33:43;12.27;;;9.35;;
29504;SDS011;16452;54.174;12.092;2022-07-31T11:38:45;11.18;;;8.88;;
29504;SDS011;16452;54.174;12.092;2022-07-31T11:41:16;14.25;;;8.98;;
29504;SDS011;16452;54.174;12.092;2022-07-31T11:43:46;14.30;;;9.13;;
29504;SDS011;16452;54.174;12.092;2022-07-31T11:46:27;12.82;;;9.70;;
29504;SDS011;16452;54.174;12.092;2022-07-31T11:48:58;11.73;;;9.48;;
29504;SDS011;16452;54.174;12.092;2022-07-31T11:51:26;15.13;;;10.07;;
29504;SDS011;16452;54.174;12.092;2022-07-31T11:53:52;15.32;;;9.48;;
29504;SDS011;16452;54.174;12.092;2022-07-31T11:56:19;11.48;;;8.75;;
29504;SDS011;16452;54.174;12.092;2022-07-31T11:58:46;14.20;;;9.43;;
29504;SDS011;16452;54.174;12.092;2022-07-31T12:01:14;18.60;;;9.82;;
29504;SDS011;16452;54.174;12.092;2022-07-31T12:03:41;14.75;;;10.45;;
29504;SDS011;16452;54.174;12.092;2022-07-31T12:06:10;14.85;;;8.35;;
29504;SDS011;16452;54.174;12.092;2022-07-31T12:08:37;15.70;;;8.65;;
29504;SDS011;16452;54.174;12.092;2022-07-31T12:11:05;15.98;;;8.80;;
29504;SDS011;16452;54.174;12.092;2022-07-31T12:13:33;12.05;;;7.72;;
29504;SDS011;16452;54.174;12.092;2022-07-31T12:16:00;17.15;;;8.95;;
29504;SDS011;16452;54.174;12.092;2022-07-31T12:18:29;16.35;;;9.30;;
29504;SDS011;16452;54.174;12.092;2022-07-31T12:21:08;10.05;;;8.13;;
29504;SDS011;16452;54.174;12.092;2022-07-31T12:23:52;14.98;;;8.80;;
29504;SDS011;16452;54.174;12.092;2022-07-31T12:26:22;11.32;;;7.70;;
29504;SDS011;16452;54.174;12.092;2022-07-31T12:29:00;11.55;;;6.90;;
29504;SDS011;16452;54.174;12.092;2022-07-31T12:31:54;13.30;;;7.55;;
29504;SDS011;16452;54.174;12.092;2022-07-31T12:34:35;12.13;;;7.97;;
29504;SDS011;16452;54.174;12.092;2022-07-31T12:37:10;16.13;;;8.38;;
29504;SDS011;16452;54.174;12.092;2022-07-31T12:42:25;12.80;;;8.57;;
29504;SDS011;16452;54.174;12.092;2022-07-31T12:44:59;13.23;;;7.40;;
29504;SDS011;16452;54.174;12.092;2022-07-31T12:47:28;10.55;;;7.32;;
29504;SDS011;16452;54.174;12.092;2022-07-31T12:49:56;13.77;;;7.10;;
29504;SDS011;16452;54.174;12.092;2022-07-31T12:52:27;12.45;;;8.60;;
29504;SDS011;16452;54.174;12.092;2022-07-31T12:54:55;14.82;;;8.05;;
29504;SDS011;16452;54.174;12.092;2022-07-31T12:57:21;14.30;;;7.43;;
29504;SDS011;16452;54.174;12.092;2022-07-31T12:59:47;14.57;;;6.97;;
29504;SDS011;16452;54.174;12.092;2022-07-31T13:02:13;11.90;;;7.70;;
29504;SDS011;16452;54.174;12.092;2022-07-31T13:04:40;14.15;;;7.07;;
29504;SDS011;16452;54.174;12.092;2022-07-31T13:07:06;10.18;;;6.30;;
29504;SDS011;16452;54.174;12.092;2022-07-31T13:09:32;12.35;;;6.75;;
29504;SDS011;16452;54.174;12.092;2022-07-31T13:11:58;13.23;;;6.88;;
29504;SDS011;16452;54.174;12.092;2022-07-31T13:14:24;10.48;;;7.38;;
29504;SDS011;16452;54.174;12.092;2022-07-31T13:16:50;12.57;;;7.95;;
29504;SDS011;16452;54.174;12.092;2022-07-31T13:19:17;12.27;;;7.35;;
29504;SDS011;16452;54.174;12.092;2022-07-31T13:21:44;12.65;;;7.50;;
29504;SDS011;16452;54.174;12.092;2022-07-31T13:24:10;17.35;;;7.72;;
29504;SDS011;16452;54.174;12.092;2022-07-31T13:26:38;10.90;;;8.27;;
29504;SDS011;16452;54.174;12.092;2022-07-31T13:29:04;13.07;;;8.45;;
29504;SDS011;16452;54.174;12.092;2022-07-31T13:31:30;13.98;;;7.88;;
29504;SDS011;16452;54.174;12.092;2022-07-31T13:33:57;13.35;;;7.65;;
29504;SDS011;16452;54.174;12.092;2022-07-31T13:36:23;12.18;;;8.05;;
29504;SDS011;16452;54.174;12.092;2022-07-31T13:38:49;18.48;;;8.93;;
29504;SDS011;16452;54.174;12.092;2022-07-31T13:41:15;12.07;;;7.63;;
29504;SDS011;16452;54.174;12.092;2022-07-31T13:43:55;11.82;;;7.38;;
29504;SDS011;16452;54.174;12.092;2022-07-31T13:46:23;15.13;;;9.13;;
29504;SDS011;16452;54.174;12.092;2022-07-31T13:48:50;13.77;;;7.97;;
29504;SDS011;16452;54.174;12.092;2022-07-31T13:51:18;11.45;;;8.65;;
29504;SDS011;16452;54.174;12.092;2022-07-31T13:53:44;11.38;;;7.20;;
29504;SDS011;16452;54.174;12.092;2022-07-31T13:56:10;13.32;;;7.03;;
29504;SDS011;16452;54.174;12.092;2022-07-31T13:58:36;11.57;;;7.55;;
29504;SDS011;16452;54.174;12.092;2022-07-31T14:01:03;12.20;;;6.85;;
29504;SDS011;16452;54.174;12.092;2022-07-31T14:03:29;11.60;;;6.60;;
29504;SDS011;16452;54.174;12.092;2022-07-31T14:05:55;8.82;;;6.38;;
29504;SDS011;16452;54.174;12.092;2022-07-31T14:08:21;14.52;;;7.35;;
29504;SDS011;16452;54.174;12.092;2022-07-31T14:10:48;11.98;;;6.90;;
29504;SDS011;16452;54.174;12.092;2022-07-31T14:13:14;12.27;;;7.53;;
29504;SDS011;16452;54.174;12.092;2022-07-31T14:15:40;11.18;;;6.93;;
29504;SDS011;16452;54.174;12.092;2022-07-31T14:18:06;12.73;;;6.70;;
29504;SDS011;16452;54.174;12.092;2022-07-31T14:20:32;12.35;;;6.22;;
29504;SDS011;16452;54.174;12.092;2022-07-31T14:22:59;14.32;;;7.78;;
29504;SDS011;16452;54.174;12.092;2022-07-31T14:25:29;14.40;;;6.97;;
29504;SDS011;16452;54.174;12.092;2022-07-31T14:27:56;15.30;;;7.72;;
29504;SDS011;16452;54.174;12.092;2022-07-31T14:30:23;15.15;;;7.95;;
29504;SDS011;16452;54.174;12.092;2022-07-31T14:32:49;12.80;;;6.80;;
29504;SDS011;16452;54.174;12.092;2022-07-31T14:35:15;10.45;;;6.90;;
29504;SDS011;16452;54.174;12.092;2022-07-31T14:37:41;12.32;;;7.93;;
29504;SDS011;16452;54.174;12.092;2022-07-31T14:40:07;12.90;;;7.78;;
29504;SDS011;16452;54.174;12.092;2022-07-31T14:42:34;10.73;;;6.53;;
29504;SDS011;16452;54.174;12.092;2022-07-31T14:45:00;9.68;;;6.60;;
29504;SDS011;16452;54.174;12.092;2022-07-31T14:47:27;8.95;;;6.10;;
29504;SDS011;16452;54.174;12.092;2022-07-31T14:49:54;20.70;;;8.88;;